Time;durP1;ratioP1;P1;durP2;ratioP2;P2;SDS_P1;SDS_P2;PMS_P1;PMS_P2;Temp;Humidity;BMP_temperature;BMP_pressure;BME280_temperature;BME280_humidity;BME280_pressure;Samples;Min_cycle;Max_cycle;Signal;HPM_P1;HPM_P2
2022/04/18 00:02:07;;;;;;;8.13;6.18;;;9.90;65.40;;;;;;5056846;28;20211;-73
2022/04/18 00:04:36;;;;;;;8.40;6.05;;;9.90;65.70;;;;;;5059206;28;20298;-73
2022/04/18 00:07:04;;;;;;;10.48;5.80;;;9.90;66.00;;;;;;5061096;28;20254;-73
2022/04/18 00:09:33;;;;;;;10.07;6.13;;;9.90;66.50;;;;;;5063638;28;20735;-74
2022/04/18 00:12:08;;;;;;;9.38;5.38;;;9.80;66.70;;;;;;5063082;28;20226;-73
2022/04/18 00:14:35;;;;;;;13.07;7.00;;;9.80;66.80;;;;;;5065231;28;20219;-73
2022/04/18 00:17:16;;;;;;;11.73;7.00;;;9.80;67.00;;;;;;5065705;28;20278;-73
2022/04/18 00:19:43;;;;;;;10.10;6.90;;;9.70;68.00;;;;;;5067277;28;20559;-73
2022/04/18 00:22:15;;;;;;;8.02;5.57;;;9.70;67.70;;;;;;5062034;28;20275;-73
2022/04/18 00:24:42;;;;;;;8.73;6.10;;;9.60;67.80;;;;;;5076454;28;20234;-73
2022/04/18 00:27:10;;;;;;;10.32;6.07;;;9.60;68.20;;;;;;5076077;28;20433;-73
2022/04/18 00:29:36;;;;;;;11.27;6.57;;;9.60;68.20;;;;;;5060312;28;20732;-73
2022/04/18 00:32:04;;;;;;;10.50;7.05;;;9.60;68.30;;;;;;5074358;28;20195;-73
2022/04/18 00:34:33;;;;;;;6.88;5.50;;;9.60;68.40;;;;;;5056910;28;20321;-73
2022/04/18 00:37:00;;;;;;;9.88;6.60;;;9.50;68.80;;;;;;5055891;28;20191;-72
2022/04/18 00:39:27;;;;;;;8.13;5.68;;;9.60;69.20;;;;;;5055745;28;20684;-72
2022/04/18 00:41:54;;;;;;;10.13;5.30;;;9.60;69.40;;;;;;5058650;28;20199;-72
2022/04/18 00:44:21;;;;;;;6.10;4.75;;;9.70;69.50;;;;;;5057103;28;20270;-73
2022/04/18 00:46:49;;;;;;;9.10;5.95;;;9.70;69.70;;;;;;5061794;28;20269;-72
2022/04/18 00:49:16;;;;;;;8.70;5.85;;;9.50;70.10;;;;;;5060743;28;20515;-73
2022/04/18 00:51:45;;;;;;;8.95;5.63;;;9.50;70.80;;;;;;5062709;28;20229;-73
2022/04/18 00:54:13;;;;;;;9.48;5.85;;;9.50;71.40;;;;;;5060625;28;20281;-73
2022/04/18 00:56:40;;;;;;;9.60;5.03;;;9.50;71.90;;;;;;5062072;28;20738;-73
2022/04/18 00:59:08;;;;;;;8.75;5.50;;;9.50;72.20;;;;;;5060511;28;20210;-73
2022/04/18 01:01:37;;;;;;;7.60;4.85;;;9.50;72.30;;;;;;5054811;28;20211;-73
2022/04/18 01:04:06;;;;;;;8.88;6.45;;;9.40;73.20;;;;;;5055942;28;20219;-73
2022/04/18 01:06:34;;;;;;;9.77;6.07;;;9.40;74.30;;;;;;5060233;28;20247;-73
2022/04/18 01:09:03;;;;;;;7.03;5.38;;;9.40;75.20;;;;;;5062879;28;20206;-74
2022/04/18 01:11:30;;;;;;;8.05;6.00;;;9.30;75.50;;;;;;5054688;28;20207;-73
2022/04/18 01:14:00;;;;;;;11.20;6.30;;;9.20;76.10;;;;;;5058869;28;20221;-72
2022/04/18 01:16:27;;;;;;;12.27;7.72;;;9.10;76.50;;;;;;5053941;28;20202;-74
2022/04/18 01:18:56;;;;;;;12.02;7.07;;;9.10;77.30;;;;;;5059320;28;20234;-73
2022/04/18 01:21:24;;;;;;;9.48;7.60;;;9.10;77.80;;;;;;5062024;28;20655;-73
2022/04/18 01:23:51;;;;;;;9.27;7.13;;;9.10;78.10;;;;;;5063331;28;20333;-74
2022/04/18 01:29:02;;;;;;;12.32;9.15;;;9.00;79.50;;;;;;5056514;28;20302;-73
2022/04/18 01:31:32;;;;;;;8.15;6.80;;;9.00;80.00;;;;;;5059096;28;20213;-73
2022/04/18 01:33:59;;;;;;;13.02;6.72;;;9.10;79.60;;;;;;5057861;28;20310;-73
2022/04/18 01:36:28;;;;;;;18.35;6.93;;;9.10;79.00;;;;;;5062685;28;20654;-73
2022/04/18 01:38:55;;;;;;;9.90;6.10;;;9.10;78.90;;;;;;5060452;28;20286;-73
2022/04/18 01:41:23;;;;;;;9.85;6.22;;;9.00;78.70;;;;;;5060911;28;20210;-72
2022/04/18 01:43:50;;;;;;;7.88;6.22;;;9.00;78.60;;;;;;5058537;28;20286;-73
2022/04/18 01:46:18;;;;;;;7.50;5.78;;;8.90;78.80;;;;;;5054145;28;20310;-72
2022/04/18 01:48:47;;;;;;;9.27;5.63;;;8.80;78.90;;;;;;5060087;28;20298;-72
2022/04/18 01:51:14;;;;;;;10.90;6.57;;;8.80;79.60;;;;;;5058481;28;20210;-73
2022/04/18 01:53:42;;;;;;;9.38;6.50;;;8.70;79.80;;;;;;5062254;28;20203;-73
2022/04/18 01:56:09;;;;;;;11.52;6.82;;;8.80;80.90;;;;;;5055246;28;20192;-72
2022/04/18 01:58:36;;;;;;;10.93;7.82;;;8.70;80.30;;;;;;5054759;28;20203;-72
2022/04/18 02:01:03;;;;;;;9.20;6.18;;;8.70;80.70;;;;;;5055670;28;20300;-73
2022/04/18 02:03:30;;;;;;;9.80;5.80;;;8.80;81.20;;;;;;5054592;28;20198;-73
2022/04/18 02:05:57;;;;;;;7.97;6.07;;;8.80;80.50;;;;;;5047956;28;20230;-72
2022/04/18 02:08:24;;;;;;;9.38;6.10;;;8.80;80.60;;;;;;5059070;28;20202;-73
2022/04/18 02:10:52;;;;;;;7.60;6.80;;;8.80;81.00;;;;;;5057692;28;20293;-72
2022/04/18 02:13:19;;;;;;;8.48;6.45;;;8.80;81.40;;;;;;5057341;28;20647;-73
2022/04/18 02:15:48;;;;;;;9.43;6.43;;;8.70;81.50;;;;;;5055859;28;20230;-73
2022/04/18 02:18:15;;;;;;;10.40;6.78;;;8.70;82.10;;;;;;5061062;28;20287;-73
2022/04/18 02:20:42;;;;;;;9.40;6.30;;;8.60;82.40;;;;;;5055955;28;20235;-73
2022/04/18 02:23:09;;;;;;;11.57;7.20;;;8.60;82.80;;;;;;5054051;28;20658;-74
2022/04/18 02:25:36;;;;;;;12.90;7.45;;;8.50;83.40;;;;;;5060256;28;20230;-72
2022/04/18 02:28:05;;;;;;;11.13;6.88;;;8.50;83.40;;;;;;5056349;28;20216;-71
2022/04/18 02:30:32;;;;;;;11.80;8.13;;;8.40;83.60;;;;;;5061408;28;20212;-72
2022/04/18 02:32:59;;;;;;;8.63;6.78;;;8.50;84.60;;;;;;5056379;28;20471;-73
2022/04/18 02:35:27;;;;;;;13.70;6.72;;;8.40;83.90;;;;;;5058395;28;20230;-72
2022/04/18 02:37:54;;;;;;;10.40;7.43;;;8.40;84.00;;;;;;5056614;28;20623;-72
2022/04/18 02:40:22;;;;;;;9.05;6.20;;;8.40;84.20;;;;;;5056428;28;20288;-72
2022/04/18 02:42:49;;;;;;;13.13;7.75;;;8.50;84.10;;;;;;5065534;28;20208;-73
2022/04/18 02:45:19;;;;;;;11.38;6.70;;;8.40;84.10;;;;;;5066678;28;20781;-72
2022/04/18 02:47:47;;;;;;;8.70;6.68;;;8.40;84.10;;;;;;5061061;28;20228;-73
2022/04/18 02:50:15;;;;;;;11.30;6.80;;;8.40;84.50;;;;;;5057755;28;20206;-73
2022/04/18 02:52:42;;;;;;;10.52;7.75;;;8.40;84.60;;;;;;5053753;28;20209;-73
2022/04/18 02:55:11;;;;;;;14.02;8.68;;;8.40;84.80;;;;;;5060218;28;20237;-73
2022/04/18 02:57:39;;;;;;;12.90;7.78;;;8.40;85.00;;;;;;5054813;28;20281;-72
2022/04/18 03:00:08;;;;;;;11.65;7.85;;;8.40;85.00;;;;;;5058651;28;20202;-73
2022/04/18 03:02:37;;;;;;;11.20;7.30;;;8.50;85.00;;;;;;5052854;28;20241;-72
2022/04/18 03:05:05;;;;;;;13.60;7.32;;;8.50;85.00;;;;;;5052952;28;20256;-73
2022/04/18 03:07:33;;;;;;;14.63;8.25;;;8.50;85.30;;;;;;5059685;28;20330;-72
2022/04/18 03:10:00;;;;;;;9.65;6.55;;;8.40;85.60;;;;;;5056034;28;20221;-72
2022/04/18 03:12:28;;;;;;;8.20;7.38;;;8.50;85.80;;;;;;5056972;28;20238;-73
2022/04/18 03:14:54;;;;;;;10.90;7.15;;;8.40;85.80;;;;;;5052151;28;20265;-72
2022/04/18 03:17:22;;;;;;;6.97;5.60;;;8.50;85.70;;;;;;5058414;28;20237;-73
2022/04/18 03:19:52;;;;;;;11.23;6.75;;;8.40;86.30;;;;;;5055223;28;20538;-73
2022/04/18 03:22:19;;;;;;;9.82;6.28;;;8.40;85.60;;;;;;5060987;28;20277;-72
2022/04/18 03:24:46;;;;;;;9.18;6.20;;;8.40;85.90;;;;;;5057269;28;20222;-72
2022/04/18 03:27:13;;;;;;;7.63;5.43;;;8.40;85.90;;;;;;5062115;28;20221;-72
2022/04/18 03:29:40;;;;;;;8.93;5.75;;;8.40;85.90;;;;;;5057523;28;20205;-73
2022/04/18 03:32:09;;;;;;;8.75;5.20;;;8.40;86.40;;;;;;5063605;28;20229;-74
2022/04/18 03:34:36;;;;;;;8.68;6.38;;;8.30;86.00;;;;;;5053104;28;20545;-73
2022/04/18 03:39:53;;;;;;;6.95;5.50;;;8.20;87.10;;;;;;5062564;28;20909;-73
2022/04/18 03:42:29;;;;;;;6.38;4.82;;;8.10;88.20;;;;;;5049165;28;20209;-72
2022/04/18 03:44:57;;;;;;;9.73;6.47;;;8.10;87.40;;;;;;5060460;28;20220;-72
2022/04/18 03:47:25;;;;;;;16.70;6.47;;;8.10;87.20;;;;;;5062349;28;20221;-72
2022/04/18 03:49:52;;;;;;;7.95;4.70;;;8.20;87.30;;;;;;5057084;28;20228;-72
2022/04/18 03:52:21;;;;;;;11.55;5.25;;;8.20;87.10;;;;;;5047497;28;20207;-71
2022/04/18 03:54:48;;;;;;;9.82;6.57;;;8.20;87.00;;;;;;5061256;28;20308;-72
2022/04/18 03:57:15;;;;;;;7.80;5.30;;;8.20;87.40;;;;;;5064711;28;20313;-73
2022/04/18 03:59:42;;;;;;;9.60;6.45;;;8.10;88.20;;;;;;5061754;28;20201;-73
2022/04/18 04:02:09;;;;;;;9.90;5.15;;;8.10;87.50;;;;;;5057695;28;20297;-73
2022/04/18 04:04:36;;;;;;;7.10;5.32;;;8.20;88.20;;;;;;5058623;28;20226;-73
2022/04/18 04:07:04;;;;;;;7.85;6.25;;;8.10;87.40;;;;;;5058496;28;20219;-72
2022/04/18 04:09:33;;;;;;;8.57;5.38;;;8.10;87.70;;;;;;5062960;28;20974;-73
2022/04/18 04:12:00;;;;;;;10.10;6.15;;;8.10;87.90;;;;;;5060086;28;20292;-73
2022/04/18 04:14:28;;;;;;;8.02;5.68;;;8.00;88.20;;;;;;5056356;28;20341;-73
2022/04/18 04:16:54;;;;;;;7.00;4.78;;;8.10;88.30;;;;;;5062031;28;20213;-73
2022/04/18 04:19:21;;;;;;;9.95;6.35;;;8.00;88.20;;;;;;5055992;28;20252;-73
2022/04/18 04:21:48;;;;;;;8.50;5.03;;;8.00;88.90;;;;;;5055954;28;20286;-73
2022/04/18 04:24:15;;;;;;;12.35;5.72;;;7.90;89.20;;;;;;5056817;28;20230;-73
2022/04/18 04:26:45;;;;;;;9.18;6.22;;;7.90;89.40;;;;;;5055531;28;20210;-73
2022/04/18 04:29:11;;;;;;;11.93;5.80;;;7.90;89.80;;;;;;5062533;28;20198;-73
2022/04/18 04:31:38;;;;;;;7.75;5.80;;;7.90;90.20;;;;;;5056086;28;20214;-74
2022/04/18 04:34:05;;;;;;;7.35;5.60;;;7.90;90.00;;;;;;5055429;28;20217;-72
2022/04/18 04:36:32;;;;;;;13.93;6.85;;;7.90;90.20;;;;;;5055486;28;20210;-72
2022/04/18 04:38:59;;;;;;;11.80;7.93;;;7.80;90.70;;;;;;5055758;28;20284;-72
2022/04/18 04:41:26;;;;;;;9.70;6.75;;;7.80;90.60;;;;;;5055226;28;20205;-73
2022/04/18 04:43:55;;;;;;;7.72;5.88;;;7.80;90.60;;;;;;5055673;28;20575;-72
2022/04/18 04:46:22;;;;;;;8.85;6.40;;;7.80;90.50;;;;;;5053251;28;20201;-73
2022/04/18 04:48:48;;;;;;;9.88;6.38;;;7.80;90.30;;;;;;5045384;28;20237;-73
2022/04/18 04:51:15;;;;;;;11.93;7.63;;;7.80;90.40;;;;;;5053769;28;20239;-73
2022/04/18 04:53:42;;;;;;;7.70;6.25;;;7.80;90.30;;;;;;5055025;28;20293;-73
2022/04/18 04:56:09;;;;;;;9.07;6.60;;;7.90;90.50;;;;;;5055523;28;20196;-73
2022/04/18 04:58:36;;;;;;;9.25;7.22;;;7.90;90.50;;;;;;5055096;28;20637;-73
2022/04/18 05:01:05;;;;;;;9.98;7.05;;;7.90;90.80;;;;;;5054615;28;20305;-71
2022/04/18 05:03:31;;;;;;;8.90;5.95;;;8.00;90.50;;;;;;5055519;28;20267;-72
2022/04/18 05:05:59;;;;;;;10.07;6.40;;;8.00;90.80;;;;;;5055255;28;20309;-73
2022/04/18 05:08:26;;;;;;;12.25;6.60;;;8.00;90.60;;;;;;5055619;28;20230;-72
2022/04/18 05:10:54;;;;;;;10.40;7.90;;;8.20;90.50;;;;;;5054438;28;20263;-72
2022/04/18 05:13:22;;;;;;;9.25;6.97;;;8.30;90.40;;;;;;5054522;28;20206;-73
2022/04/18 05:15:49;;;;;;;8.77;6.90;;;8.40;90.20;;;;;;5054993;28;20242;-72
2022/04/18 05:18:17;;;;;;;8.63;7.05;;;8.50;89.70;;;;;;5054054;28;20293;-73
2022/04/18 05:20:45;;;;;;;11.27;7.75;;;8.70;89.20;;;;;;5054196;28;20257;-72
2022/04/18 05:23:14;;;;;;;10.43;6.60;;;9.20;89.10;;;;;;5055073;28;20213;-73
2022/04/18 05:25:41;;;;;;;14.30;7.50;;;9.90;88.10;;;;;;5054554;28;20709;-74
2022/04/18 05:28:08;;;;;;;10.95;6.80;;;11.00;83.70;;;;;;5053707;28;20701;-73
2022/04/18 05:30:36;;;;;;;7.97;6.95;;;11.90;78.90;;;;;;5053377;28;20261;-72
2022/04/18 05:33:03;;;;;;;10.82;7.43;;;12.90;75.80;;;;;;5053802;28;20210;-73
2022/04/18 05:35:31;;;;;;;7.95;6.75;;;13.90;72.40;;;;;;5054147;28;20253;-75
2022/04/18 05:37:58;;;;;;;9.90;6.95;;;14.60;69.60;;;;;;5054667;28;20187;-73
2022/04/18 05:40:25;;;;;;;10.60;7.82;;;15.50;67.10;;;;;;5054049;28;20279;-73
2022/04/18 05:42:52;;;;;;;9.38;7.00;;;16.40;64.10;;;;;;5054228;28;20197;-73
2022/04/18 05:45:20;;;;;;;9.63;7.10;;;16.90;61.20;;;;;;5054817;28;20634;-74
2022/04/18 05:47:47;;;;;;;15.35;7.75;;;17.60;59.80;;;;;;5054188;28;20556;-74
2022/04/18 05:50:14;;;;;;;8.70;6.70;;;18.10;58.20;;;;;;5053731;28;20280;-74
2022/04/18 05:52:42;;;;;;;10.27;6.97;;;18.20;56.90;;;;;;5054075;28;20470;-72
2022/04/18 05:55:09;;;;;;;11.70;6.80;;;18.50;55.80;;;;;;5053832;28;21127;-75
2022/04/18 05:57:36;;;;;;;11.73;7.80;;;18.60;54.80;;;;;;5054490;28;20529;-75
2022/04/18 06:00:05;;;;;;;9.57;6.33;;;19.20;54.10;;;;;;5054074;28;20435;-74
2022/04/18 06:02:32;;;;;;;11.20;8.03;;;19.30;54.20;;;;;;5052791;28;20468;-74
2022/04/18 06:04:58;;;;;;;10.27;7.30;;;19.70;52.90;;;;;;5053988;28;20467;-75
2022/04/18 06:07:25;;;;;;;10.13;7.00;;;19.70;52.00;;;;;;5053123;28;20565;-73
2022/04/18 06:09:53;;;;;;;11.80;7.50;;;20.00;51.80;;;;;;5053081;28;21045;-73
2022/04/18 06:12:21;;;;;;;9.70;7.17;;;20.10;51.10;;;;;;5053806;28;20426;-73
2022/04/18 06:14:48;;;;;;;9.93;7.57;;;20.30;50.50;;;;;;5053939;28;20480;-74
2022/04/18 06:17:15;;;;;;;11.70;7.87;;;20.30;50.40;;;;;;5053306;28;20506;-73
2022/04/18 06:19:42;;;;;;;9.50;7.30;;;20.50;50.40;;;;;;5053145;28;20469;-73
2022/04/18 06:22:09;;;;;;;12.00;7.80;;;20.40;49.60;;;;;;5053458;28;20451;-74
2022/04/18 06:24:36;;;;;;;9.83;7.80;;;20.10;49.50;;;;;;5053711;28;20557;-74
2022/04/18 06:27:05;;;;;;;12.67;8.70;;;20.20;50.10;;;;;;5053588;28;20456;-74
2022/04/18 06:29:32;;;;;;;10.97;9.03;;;20.60;49.60;;;;;;5053392;28;20537;-74
2022/04/18 06:31:59;;;;;;;11.63;8.03;;;20.70;49.10;;;;;;5053650;28;20546;-74
2022/04/18 06:34:27;;;;;;;9.50;8.13;;;20.90;49.40;;;;;;5054334;28;20500;-74
2022/04/18 06:36:54;;;;;;;9.70;7.40;;;21.50;49.00;;;;;;5052810;28;20446;-74
2022/04/18 06:39:21;;;;;;;11.07;8.57;;;21.90;48.30;;;;;;5053344;28;20949;-74
2022/04/18 06:41:48;;;;;;;12.23;7.50;;;22.30;47.80;;;;;;5056052;28;20430;-73
2022/04/18 06:44:16;;;;;;;11.43;8.00;;;22.20;46.90;;;;;;5053095;28;20501;-74
2022/04/18 06:46:43;;;;;;;8.93;7.03;;;22.80;46.90;;;;;;5052936;28;20477;-74
2022/04/18 06:49:10;;;;;;;9.10;7.90;;;23.50;45.70;;;;;;5052936;28;20485;-75
2022/04/18 06:51:37;;;;;;;10.03;8.00;;;23.30;45.60;;;;;;5052515;28;20764;-74
2022/04/18 06:54:04;;;;;;;8.73;7.40;;;23.10;45.40;;;;;;5052857;28;20544;-75
2022/04/18 06:59:17;;;;;;;8.67;6.60;;;23.30;45.30;;;;;;5052647;28;20553;-74
2022/04/18 07:01:44;;;;;;;10.10;7.10;;;23.30;44.60;;;;;;5051720;28;20488;-74
2022/04/18 07:04:13;;;;;;;8.93;6.67;;;23.30;44.70;;;;;;5052749;28;20899;-73
2022/04/18 07:06:40;;;;;;;7.93;5.20;;;23.60;44.50;;;;;;5052118;28;20579;-74
2022/04/18 07:09:07;;;;;;;9.17;6.37;;;23.70;44.60;;;;;;5049483;28;20496;-75
2022/04/18 07:11:34;;;;;;;7.40;5.93;;;23.70;44.70;;;;;;5053155;28;20450;-75
2022/04/18 07:14:01;;;;;;;8.57;6.87;;;24.10;44.50;;;;;;5053615;28;21046;-76
2022/04/18 07:16:30;;;;;;;7.93;6.23;;;24.20;44.10;;;;;;5058538;28;20544;-75
2022/04/18 07:18:57;;;;;;;9.00;6.50;;;24.30;44.40;;;;;;5058088;28;20456;-75
2022/04/18 07:21:25;;;;;;;7.70;6.20;;;24.60;44.30;;;;;;5060282;28;20743;-75
2022/04/18 07:23:52;;;;;;;8.50;5.77;;;24.30;43.40;;;;;;5051501;28;20454;-74
2022/04/18 07:26:19;;;;;;;8.17;6.27;;;24.60;43.60;;;;;;5045022;28;20479;-75
2022/04/18 07:28:47;;;;;;;7.27;5.83;;;24.70;43.20;;;;;;5052369;28;20495;-75
2022/04/18 07:31:14;;;;;;;7.33;6.17;;;25.10;43.00;;;;;;5051502;28;20534;-74
2022/04/18 07:33:42;;;;;;;8.40;6.37;;;25.50;43.00;;;;;;5059611;28;20532;-74
2022/04/18 07:36:10;;;;;;;7.90;6.10;;;25.50;42.40;;;;;;5055106;28;20513;-74
2022/04/18 07:38:52;;;;;;;8.20;6.50;;;25.40;42.20;;;;;;5062666;28;20441;-74
2022/04/18 07:41:21;;;;;;;6.80;6.10;;;25.10;42.20;;;;;;5051358;28;20452;-74
2022/04/18 07:43:48;;;;;;;8.60;6.23;;;24.80;42.90;;;;;;5057361;28;20549;-74
2022/04/18 07:46:16;;;;;;;7.60;6.10;;;25.70;41.90;;;;;;5053081;28;20485;-74
2022/04/18 07:48:47;;;;;;;7.90;5.87;;;25.70;41.40;;;;;;5056552;28;20474;-74
2022/04/18 07:53:59;;;;;;;7.93;5.50;;;25.70;41.50;;;;;;5055429;28;20460;-73
2022/04/18 07:56:26;;;;;;;8.17;5.53;;;25.60;41.30;;;;;;5054372;28;20525;-73
2022/04/18 07:58:55;;;;;;;7.33;5.60;;;24.60;41.90;;;;;;5052642;28;20524;-74
2022/04/18 08:01:22;;;;;;;8.77;4.97;;;25.10;42.70;;;;;;5058058;28;20530;-75
2022/04/18 08:03:50;;;;;;;5.70;5.03;;;25.80;41.70;;;;;;5057819;28;20452;-74
2022/04/18 08:06:18;;;;;;;7.60;5.17;;;25.70;41.50;;;;;;5055429;28;20449;-75
2022/04/18 08:08:45;;;;;;;8.90;5.77;;;26.10;40.80;;;;;;5059987;28;20504;-73
2022/04/18 08:11:14;;;;;;;7.93;5.63;;;25.80;40.50;;;;;;5060152;28;20523;-75
2022/04/18 08:13:42;;;;;;;9.03;6.50;;;26.10;41.10;;;;;;5052189;28;20488;-74
2022/04/18 08:16:09;;;;;;;6.77;5.93;;;25.50;40.70;;;;;;5056630;28;20912;-73
2022/04/18 08:18:38;;;;;;;8.13;5.33;;;25.80;41.20;;;;;;5051663;28;20470;-74
2022/04/18 08:21:07;;;;;;;7.60;5.37;;;26.00;41.00;;;;;;5053228;28;20464;-74
2022/04/18 08:23:35;;;;;;;7.20;5.40;;;26.20;40.40;;;;;;5059257;28;20485;-73
2022/04/18 08:26:03;;;;;;;7.20;5.30;;;26.70;39.30;;;;;;5054990;28;20540;-73
2022/04/18 08:28:30;;;;;;;7.77;5.23;;;26.70;39.10;;;;;;5053022;28;21019;-76
2022/04/18 08:30:57;;;;;;;6.93;4.80;;;26.70;39.20;;;;;;5061343;28;20506;-75
2022/04/18 08:33:25;;;;;;;6.67;4.63;;;27.00;39.70;;;;;;5055935;28;20785;-76
2022/04/18 08:35:51;;;;;;;7.63;5.40;;;27.20;39.00;;;;;;5059141;28;20894;-75
2022/04/18 08:38:20;;;;;;;6.20;5.03;;;27.10;38.50;;;;;;5055616;28;20472;-75
2022/04/18 08:40:50;;;;;;;5.77;5.20;;;27.20;38.50;;;;;;5057638;28;20524;-75
2022/04/18 08:43:18;;;;;;;7.83;5.23;;;27.00;38.30;;;;;;5053660;28;20453;-74
2022/04/18 08:45:45;;;;;;;6.77;5.37;;;26.70;38.20;;;;;;5056221;28;20525;-74
2022/04/18 08:53:44;;;;;;;8.30;6.03;;;25.70;39.10;;;;;;5056731;28;20483;-74
2022/04/18 08:56:11;;;;;;;6.67;5.40;;;25.90;39.60;;;;;;5057062;28;20446;-74
2022/04/18 08:58:38;;;;;;;5.23;4.30;;;26.50;39.40;;;;;;5060878;28;20612;-73
2022/04/18 09:01:05;;;;;;;6.43;5.00;;;26.40;39.50;;;;;;5054427;28;20541;-74
2022/04/18 09:03:32;;;;;;;5.10;3.77;;;26.70;38.60;;;;;;5063506;28;20928;-74
2022/04/18 09:06:10;;;;;;;6.23;5.10;;;26.80;37.70;;;;;;5058441;28;20545;-75
2022/04/18 09:08:46;;;;;;;6.00;4.03;;;26.20;36.40;;;;;;5050214;28;20508;-74
2022/04/18 09:11:25;;;;;;;5.73;4.87;;;25.90;37.10;;;;;;5058763;28;20464;-73
2022/04/18 09:13:58;;;;;;;5.87;4.40;;;25.70;37.90;;;;;;5054160;28;20998;-74
2022/04/18 09:16:29;;;;;;;5.80;4.30;;;25.50;38.40;;;;;;5052850;28;20508;-74
2022/04/18 09:19:09;;;;;;;5.53;4.20;;;25.60;38.90;;;;;;5058094;28;20447;-72
2022/04/18 09:21:41;;;;;;;5.10;4.43;;;26.00;38.10;;;;;;5061521;28;20523;-73
2022/04/18 09:24:24;;;;;;;6.97;4.93;;;26.00;37.90;;;;;;5061442;28;20493;-73
2022/04/18 09:26:51;;;;;;;4.73;3.70;;;25.90;37.90;;;;;;5055200;28;20438;-75
2022/04/18 09:29:19;;;;;;;5.80;4.87;;;25.50;38.40;;;;;;5058663;28;20484;-74
2022/04/18 09:31:45;;;;;;;8.20;4.10;;;25.70;39.20;;;;;;5051518;28;20938;-74
2022/04/18 09:34:20;;;;;;;8.60;4.80;;;26.00;38.30;;;;;;5061078;28;20884;-74
2022/04/18 09:36:47;;;;;;;6.00;4.90;;;26.30;38.00;;;;;;5052031;28;20439;-73
2022/04/18 09:39:24;;;;;;;6.53;4.13;;;25.80;38.10;;;;;;5054372;28;20549;-74
2022/04/18 09:41:51;;;;;;;4.00;3.60;;;25.60;37.80;;;;;;5056352;28;20449;-73
2022/04/18 09:44:27;;;;;;;5.40;4.00;;;25.60;38.70;;;;;;5056339;28;20505;-74
2022/04/18 09:46:54;;;;;;;4.87;3.70;;;25.20;39.10;;;;;;5072886;28;20931;-73
2022/04/18 09:49:21;;;;;;;6.13;4.40;;;24.40;39.30;;;;;;5055393;28;21095;-73
2022/04/18 09:51:47;;;;;;;6.40;3.63;;;24.80;39.90;;;;;;5059283;28;20474;-73
2022/04/18 09:54:18;;;;;;;5.57;3.80;;;25.10;39.30;;;;;;5059470;28;20553;-74
2022/04/18 09:56:50;;;;;;;5.00;3.60;;;25.50;38.50;;;;;;5056829;28;20442;-74
2022/04/18 09:59:18;;;;;;;5.70;4.28;;;25.00;38.90;;;;;;5060774;28;20443;-74
2022/04/18 10:01:46;;;;;;;4.27;3.53;;;24.40;39.70;;;;;;5045116;28;20298;-76
2022/04/18 10:04:14;;;;;;;4.23;3.50;;;24.80;39.80;;;;;;5053287;28;21149;-73
2022/04/18 10:06:45;;;;;;;4.90;3.17;;;25.10;39.40;;;;;;5059899;28;20470;-73
2022/04/18 10:09:13;;;;;;;4.57;3.90;;;24.80;38.00;;;;;;5058983;28;20473;-72
2022/04/18 10:11:44;;;;;;;3.30;3.00;;;24.50;38.30;;;;;;5060388;28;20453;-73
2022/04/18 10:14:10;;;;;;;2.70;2.40;;;24.10;38.70;;;;;;5055410;28;20482;-74
2022/04/18 10:16:39;;;;;;;3.67;3.10;;;24.20;37.90;;;;;;5058894;28;20991;-73
2022/04/18 10:19:19;;;;;;;4.63;3.33;;;24.30;38.10;;;;;;5057801;28;20451;-73
2022/04/18 10:21:52;;;;;;;4.90;2.90;;;24.80;38.40;;;;;;5056206;28;20932;-74
2022/04/18 10:24:59;;;;;;;4.03;2.97;;;24.40;38.10;;;;;;5064288;28;20508;-74
2022/04/18 10:28:04;;;;;;;5.13;3.57;;;24.40;39.90;;;;;;5057043;28;20481;-76
2022/04/18 10:30:35;;;;;;;5.57;3.70;;;23.80;38.70;;;;;;5051116;28;20472;-74
2022/04/18 10:33:04;;;;;;;4.60;3.40;;;23.30;40.00;;;;;;5057044;28;20868;-74
2022/04/18 10:35:31;;;;;;;4.27;2.73;;;23.10;37.80;;;;;;5057037;28;20458;-74
2022/04/18 10:38:02;;;;;;;6.10;3.73;;;23.10;39.50;;;;;;5052880;28;20450;-74
2022/04/18 10:40:40;;;;;;;5.83;3.73;;;22.40;40.30;;;;;;5058075;28;20437;-73
2022/04/18 10:43:11;;;;;;;3.40;2.97;;;21.50;39.70;;;;;;5058389;28;20445;-74
2022/04/18 10:45:38;;;;;;;4.27;2.73;;;21.10;40.60;;;;;;5056041;28;20476;-74
2022/04/18 10:48:10;;;;;;;3.93;3.20;;;20.80;40.90;;;;;;5048633;28;20480;-74
2022/04/18 10:50:39;;;;;;;5.70;3.20;;;19.80;41.60;;;;;;5051611;28;20482;-73
2022/04/18 10:53:11;;;;;;;4.77;3.53;;;19.50;41.40;;;;;;5052638;28;20452;-72
2022/04/18 10:55:41;;;;;;;6.03;3.50;;;19.40;41.40;;;;;;5052713;28;20512;-73
2022/04/18 10:58:17;;;;;;;4.50;3.60;;;19.30;42.80;;;;;;5052249;28;20517;-73
2022/04/18 11:00:49;;;;;;;5.03;3.17;;;19.20;43.60;;;;;;5046984;28;20544;-73
2022/04/18 11:03:36;;;;;;;5.40;3.73;;;19.30;43.40;;;;;;5052511;28;20461;-74
2022/04/18 11:06:03;;;;;;;4.53;2.60;;;19.20;42.70;;;;;;5053232;28;20520;-73
2022/04/18 11:08:31;;;;;;;5.87;3.80;;;19.10;43.00;;;;;;5052570;28;20422;-74
2022/04/18 11:11:04;;;;;;;5.67;3.30;;;18.90;43.80;;;;;;5051829;28;20450;-74
2022/04/18 11:13:33;;;;;;;8.10;3.47;;;19.00;44.20;;;;;;5052461;28;20897;-73
2022/04/18 11:16:39;;;;;;;5.47;3.60;;;18.80;43.10;;;;;;5064563;28;20861;-74
2022/04/18 11:19:07;;;;;;;4.60;3.10;;;18.90;43.50;;;;;;5056789;28;20955;-74
2022/04/18 11:22:24;;;;;;;3.40;2.67;;;18.90;43.10;;;;;;5058192;28;20450;-73
2022/04/18 11:25:02;;;;;;;4.23;3.60;;;19.00;43.90;;;;;;4987315;28;20535;-73
2022/04/18 11:27:34;;;;;;;3.40;2.60;;;18.90;43.30;;;;;;5035241;28;20507;-75
2022/04/18 11:30:06;;;;;;;4.03;2.90;;;18.90;42.20;;;;;;5057339;28;20470;-74
2022/04/18 11:32:35;;;;;;;3.07;2.40;;;18.80;41.80;;;;;;5060653;28;20450;-73
2022/04/18 11:35:05;;;;;;;5.60;2.50;;;18.90;40.20;;;;;;5069583;28;20548;-72
2022/04/18 11:37:34;;;;;;;6.40;3.67;;;18.90;40.30;;;;;;5063041;28;20507;-74
2022/04/18 11:40:03;;;;;;;4.77;3.70;;;18.70;42.80;;;;;;5052538;28;20935;-73
2022/04/18 11:42:32;;;;;;;5.60;3.43;;;18.70;43.00;;;;;;5053320;28;21011;-72
2022/04/18 11:45:01;;;;;;;6.10;3.23;;;18.50;43.40;;;;;;5051655;28;20468;-72
2022/04/18 11:47:34;;;;;;;5.00;3.63;;;18.50;43.70;;;;;;5053460;28;20485;-72
2022/04/18 11:50:04;;;;;;;4.13;2.97;;;18.50;42.70;;;;;;5057576;28;20480;-74
2022/04/18 11:52:32;;;;;;;4.30;2.87;;;18.70;43.30;;;;;;5055824;28;20456;-73
2022/04/18 11:55:02;;;;;;;6.63;3.77;;;18.90;42.90;;;;;;5059612;28;21351;-73
2022/04/18 11:57:30;;;;;;;4.77;3.10;;;18.80;44.20;;;;;;5056282;28;20565;-74
2022/04/18 11:59:57;;;;;;;4.00;3.10;;;18.70;44.20;;;;;;5058108;28;20533;-73
2022/04/18 12:08:02;;;;;;;4.33;2.97;;;18.70;43.60;;;;;;5049744;28;20564;-74
2022/04/18 12:10:31;;;;;;;5.77;3.10;;;18.80;42.50;;;;;;5060480;28;20564;-74
2022/04/18 12:13:06;;;;;;;5.20;3.60;;;18.90;43.20;;;;;;5058899;28;20472;-75
2022/04/18 12:15:33;;;;;;;4.03;2.80;;;18.80;43.60;;;;;;5067387;28;20461;-74
2022/04/18 12:18:08;;;;;;;5.70;3.13;;;18.70;44.20;;;;;;5056203;28;20446;-74
2022/04/18 12:20:40;;;;;;;7.57;3.67;;;18.60;44.60;;;;;;5054381;28;20532;-74
2022/04/18 12:23:07;;;;;;;5.83;2.60;;;18.40;44.90;;;;;;5059020;28;20507;-73
2022/04/18 12:25:34;;;;;;;6.57;3.40;;;18.40;44.90;;;;;;5061509;28;20869;-73
2022/04/18 12:28:05;;;;;;;10.53;3.00;;;18.50;45.60;;;;;;5060069;28;20477;-73
2022/04/18 12:30:33;;;;;;;5.40;3.40;;;18.40;48.10;;;;;;5061836;28;20485;-73
2022/04/18 12:33:15;;;;;;;6.43;3.90;;;18.50;45.90;;;;;;5059597;28;20476;-72
2022/04/18 12:35:46;;;;;;;5.63;3.30;;;18.70;45.10;;;;;;5049191;28;20481;-74
2022/04/18 12:38:14;;;;;;;5.70;3.77;;;18.70;45.90;;;;;;5063242;28;20544;-74
2022/04/18 12:40:42;;;;;;;5.90;3.40;;;18.70;45.20;;;;;;5067112;28;20477;-73
2022/04/18 12:43:12;;;;;;;4.60;2.40;;;18.70;45.30;;;;;;5064687;28;20516;-74
2022/04/18 12:45:49;;;;;;;6.80;3.20;;;18.70;44.60;;;;;;5055343;28;20477;-74
2022/04/18 12:48:26;;;;;;;4.60;3.33;;;18.70;45.30;;;;;;5059729;28;20812;-74
2022/04/18 12:50:56;;;;;;;4.57;3.00;;;18.80;45.60;;;;;;5057584;28;20565;-73
2022/04/18 12:53:43;;;;;;;5.30;3.37;;;18.60;44.80;;;;;;5070111;28;20438;-73
2022/04/18 12:56:10;;;;;;;4.40;3.17;;;18.70;45.70;;;;;;5061433;28;20437;-74
2022/04/18 12:58:39;;;;;;;4.23;3.40;;;18.80;45.90;;;;;;5056636;28;20449;-74
2022/04/18 13:01:06;;;;;;;5.93;3.70;;;18.70;45.20;;;;;;5055343;28;20939;-73
2022/04/18 13:03:41;;;;;;;4.03;2.80;;;18.80;45.70;;;;;;5058254;28;20448;-73
2022/04/18 13:06:09;;;;;;;5.67;3.47;;;18.90;45.30;;;;;;5062393;28;20459;-73
2022/04/18 13:08:38;;;;;;;6.23;3.30;;;18.90;45.30;;;;;;5056602;28;20549;-73
2022/04/18 13:11:05;;;;;;;3.73;3.10;;;19.00;45.50;;;;;;5062632;28;20473;-73
2022/04/18 13:13:42;;;;;;;4.53;3.10;;;19.00;44.90;;;;;;5059498;28;20480;-75
2022/04/18 13:16:21;;;;;;;5.10;2.87;;;19.10;45.10;;;;;;5055418;28;20916;-75
2022/04/18 13:18:57;;;;;;;4.47;3.03;;;18.90;45.20;;;;;;5055232;28;20461;-75
2022/04/18 13:21:25;;;;;;;6.17;4.00;;;19.00;45.00;;;;;;5054528;28;20528;-73